createdAt,value
2023-04-05T00:04:15.816Z,99759.83
2023-04-05T00:08:14.818Z,99757.08
2023-04-05T00:12:13.737Z,99759.03
2023-04-05T00:16:12.951Z,99746.34
2023-04-05T00:20:14.700Z,99740.40
2023-04-05T00:24:12.701Z,99740.78
2023-04-05T00:28:10.661Z,99741.26
2023-04-05T00:32:08.793Z,99735.45
2023-04-05T00:36:06.723Z,99735.92
2023-04-05T00:40:04.787Z,99732.50
2023-04-05T00:44:03.751Z,99730.59
2023-04-05T00:48:01.770Z,99729.71
2023-04-05T00:52:04.845Z,99735.16
2023-04-05T00:56:05.667Z,99734.36
2023-04-05T01:00:03.629Z,99738.46
2023-04-05T01:04:06.699Z,99737.55
2023-04-05T01:08:13.679Z,99739.16
2023-04-05T01:12:11.626Z,99732.86
2023-04-05T01:16:09.664Z,99735.44
2023-04-05T01:20:15.837Z,99732.62
2023-04-05T01:24:41.602Z,99737.65
2023-04-05T01:29:16.625Z,99736.92
2023-04-05T01:33:38.564Z,99739.23
2023-04-05T01:37:40.603Z,99738.10
2023-04-05T01:41:38.600Z,99737.01
2023-04-05T01:45:38.566Z,99738.26
2023-04-05T01:49:37.569Z,99736.79
2023-04-05T01:53:35.608Z,99739.10
2023-04-05T01:57:33.545Z,99734.19
2023-04-05T02:01:31.721Z,99731.77
2023-04-05T02:05:29.634Z,99732.13
2023-04-05T02:09:27.614Z,99728.27
2023-04-05T02:13:25.713Z,99728.16
2023-04-05T02:17:24.533Z,99730.70
2023-04-05T02:21:23.516Z,99729.53
2023-04-05T02:25:22.582Z,99733.41
2023-04-05T02:29:20.504Z,99733.52
2023-04-05T02:33:18.552Z,99731.43
2023-04-05T02:37:16.532Z,99731.27
2023-04-05T02:41:14.617Z,99728.85
2023-04-05T02:45:12.693Z,99727.16
2023-04-05T02:49:10.494Z,99724.30
2023-04-05T02:53:08.488Z,99725.70
2023-04-05T02:57:08.568Z,99726.25
2023-04-05T03:01:15.537Z,99727.30
2023-04-05T03:05:13.487Z,99725.04
2023-04-05T03:09:13.583Z,99730.00
2023-04-05T03:13:13.455Z,99725.51
2023-04-05T03:17:11.435Z,99721.55
2023-04-05T03:21:18.504Z,99719.07
2023-04-05T03:25:22.412Z,99719.58
2023-04-05T03:29:21.555Z,99723.08
2023-04-05T03:33:19.410Z,99715.92
2023-04-05T03:37:17.448Z,99718.77
2023-04-05T03:41:24.384Z,99722.61
2023-04-05T03:45:24.577Z,99724.62
2023-04-05T03:49:23.464Z,99723.50
2023-04-05T03:53:24.461Z,99717.27
2023-04-05T03:57:23.391Z,99721.10
2023-04-05T04:01:22.428Z,99714.58
2023-04-05T04:05:20.433Z,99717.14
2023-04-05T04:09:18.477Z,99718.48
2023-04-05T04:13:16.353Z,99720.55
2023-04-05T04:17:25.684Z,99720.02
2023-04-05T04:21:46.317Z,99723.92
2023-04-05T04:26:05.360Z,99719.23
2023-04-05T04:30:25.369Z,99725.78
2023-04-05T04:34:51.310Z,99726.05
2023-04-05T04:39:15.316Z,99724.91
2023-04-05T04:43:49.322Z,99728.62
2023-04-05T04:47:49.842Z,99731.42
2023-04-05T04:51:59.419Z,99733.89
2023-04-05T04:55:57.299Z,99738.99
2023-04-05T04:59:55.326Z,99742.38
2023-04-05T05:03:53.381Z,99748.67
2023-04-05T05:07:57.308Z,99749.85
2023-04-05T05:11:55.287Z,99754.15
2023-04-05T05:15:55.304Z,99758.08
2023-04-05T05:19:55.210Z,99762.06
2023-04-05T05:23:54.430Z,99766.40
2023-04-05T05:27:52.206Z,99763.15
2023-04-05T05:31:51.391Z,99761.95
2023-04-05T05:35:49.289Z,99761.54
2023-04-05T05:39:47.345Z,99762.10
2023-04-05T05:43:45.317Z,99766.34
2023-04-05T05:47:43.347Z,99769.39
2023-04-05T05:51:41.232Z,99768.60
2023-04-05T05:55:39.226Z,99770.53
2023-04-05T05:59:37.309Z,99772.67
2023-04-05T06:03:05.330Z,99771.73
2023-04-05T06:06:30.226Z,99771.14
2023-04-05T06:09:54.163Z,99776.29
2023-04-05T06:13:18.480Z,99773.52
2023-04-05T06:16:42.430Z,99774.55
2023-04-05T06:20:07.657Z,99775.96
2023-04-05T06:23:33.006Z,99776.77
2023-04-05T06:26:56.920Z,99778.81
2023-04-05T06:30:20.961Z,99777.48
2023-04-05T06:33:45.633Z,99780.98
2023-04-05T06:37:09.596Z,99784.64
2023-04-05T06:40:33.429Z,99784.60
2023-04-05T06:43:57.620Z,99784.99
2023-04-05T06:47:21.481Z,99785.30
2023-04-05T06:50:45.563Z,99787.69
2023-04-05T06:54:09.380Z,99790.86
2023-04-05T06:57:33.241Z,99791.57
2023-04-05T07:00:57.085Z,99800.06
2023-04-05T07:04:21.427Z,99793.88
2023-04-05T07:07:48.494Z,99794.14
2023-04-05T07:11:15.970Z,99793.83
2023-04-05T07:14:40.623Z,99806.86
2023-04-05T07:18:04.802Z,99808.30
2023-04-05T07:21:30.924Z,99807.61
2023-04-05T07:24:55.694Z,99811.12
2023-04-05T07:28:19.527Z,99806.02
2023-04-05T07:31:44.029Z,99805.69
2023-04-05T07:35:08.642Z,99809.34
2023-04-05T07:38:32.468Z,99808.95
2023-04-05T07:41:56.509Z,99809.52
2023-04-05T07:45:20.831Z,99804.63
2023-04-05T07:48:44.957Z,99804.42
2023-04-05T07:52:08.832Z,99809.92
2023-04-05T07:55:32.709Z,99807.96
2023-04-05T07:58:56.887Z,99812.90
2023-04-05T08:02:21.885Z,99812.26
2023-04-05T08:05:46.171Z,99809.90
2023-04-05T08:09:10.050Z,99808.86
2023-04-05T08:12:36.575Z,99810.11
2023-04-05T08:16:02.400Z,99817.12
2023-04-05T08:19:26.542Z,99814.06
2023-04-05T08:22:50.390Z,99812.70
2023-04-05T08:26:15.383Z,99813.39
2023-04-05T08:29:39.780Z,99814.67
2023-04-05T08:33:04.355Z,99817.02
2023-04-05T08:36:28.378Z,99819.73
2023-04-05T08:39:52.333Z,99824.79
2023-04-05T08:43:29.832Z,99823.77
2023-04-05T08:46:57.460Z,99821.73
2023-04-05T08:50:21.596Z,99823.43
2023-04-05T08:53:45.718Z,99823.91
2023-04-05T08:57:10.068Z,99825.33
2023-04-05T09:00:34.177Z,99828.59
2023-04-05T09:04:03.121Z,99822.69
2023-04-05T09:07:31.437Z,99819.21
2023-04-05T09:10:55.530Z,99822.64
2023-04-05T09:14:21.409Z,99821.73
2023-04-05T09:17:45.647Z,99815.38
2023-04-05T09:21:10.356Z,99813.36
2023-04-05T09:24:36.988Z,99805.28
2023-04-05T09:28:03.352Z,99804.10
2023-04-05T09:31:35.654Z,99805.00
2023-04-05T09:35:06.002Z,99810.05
2023-04-05T09:38:46.130Z,99806.88
2023-04-05T09:42:18.257Z,99808.46
2023-04-05T09:45:46.197Z,99806.08
2023-04-05T09:49:10.434Z,99805.98
2023-04-05T09:52:35.324Z,99810.86
2023-04-05T09:56:11.206Z,99808.58
2023-04-05T09:59:35.599Z,99811.85
2023-04-05T10:02:59.568Z,99816.90
2023-04-05T10:06:23.537Z,99813.98
2023-04-05T10:09:48.941Z,99809.48
2023-04-05T10:13:13.545Z,99807.47
2023-04-05T10:16:55.816Z,99799.68
2023-04-05T10:20:24.865Z,99794.18
2023-04-05T10:24:00.111Z,99788.73
2023-04-05T10:27:53.285Z,99781.06
2023-04-05T10:31:37.154Z,99782.30
2023-04-05T10:35:11.077Z,99775.79
2023-04-05T10:39:21.573Z,99774.79
2023-04-05T10:42:47.641Z,99769.30
2023-04-05T10:46:12.803Z,99768.41
2023-04-05T10:49:41.871Z,99771.14
2023-04-05T10:53:06.530Z,99770.92
2023-04-05T10:56:31.136Z,99771.06
2023-04-05T10:59:55.778Z,99767.91
2023-04-05T11:03:48.881Z,99765.42
2023-04-05T11:07:20.767Z,99768.25
2023-04-05T11:10:54.521Z,99763.63
2023-04-05T11:14:26.631Z,99766.68
2023-04-05T11:18:23.487Z,99763.79
2023-04-05T11:21:47.937Z,99764.77
2023-04-05T11:25:23.997Z,99762.16
2023-04-05T11:28:47.708Z,99761.89
2023-04-05T11:32:13.875Z,99759.64
2023-04-05T11:35:40.807Z,99762.61
2023-04-05T11:39:20.230Z,99760.30
2023-04-05T11:42:44.755Z,99767.02
2023-04-05T11:46:08.708Z,99765.42
2023-04-05T11:49:32.704Z,99767.44
2023-04-05T11:53:19.739Z,99769.88
2023-04-05T11:56:53.139Z,99764.27
2023-04-05T12:00:18.751Z,99759.30
2023-04-05T12:03:42.700Z,99759.42
2023-04-05T12:07:32.640Z,99758.26
2023-04-05T12:10:57.580Z,99759.81
2023-04-05T12:14:24.894Z,99754.08
2023-04-05T12:17:51.265Z,99750.42
2023-04-05T12:21:15.675Z,99745.24
2023-04-05T12:24:39.575Z,99741.58
2023-04-05T12:28:09.137Z,99744.04
2023-04-05T12:31:38.838Z,99749.90
2023-04-05T12:35:02.669Z,99749.98
2023-04-05T12:38:28.522Z,99750.08
2023-04-05T12:42:01.982Z,99752.94
2023-04-05T12:45:26.746Z,99752.16
2023-04-05T12:48:53.800Z,99747.10
2023-04-05T12:52:21.494Z,99750.42
2023-04-05T12:55:50.728Z,99750.64
2023-04-05T12:59:14.665Z,99747.58
2023-04-05T13:02:38.630Z,99747.05
2023-04-05T13:06:02.659Z,99754.77
2023-04-05T13:09:28.750Z,99747.55
2023-04-05T13:12:53.461Z,99753.41
2023-04-05T13:16:17.941Z,99757.29
2023-04-05T13:19:41.890Z,99746.51
2023-04-05T13:23:10.952Z,99748.86
2023-04-05T13:26:35.519Z,99742.26
2023-04-05T13:29:59.355Z,99747.55
2023-04-05T13:33:43.620Z,99751.63
2023-04-05T13:37:41.567Z,99745.02
2023-04-05T13:41:39.581Z,99746.78
2023-04-05T13:45:37.540Z,99742.59
2023-04-05T13:49:35.779Z,99742.19
2023-04-05T13:53:33.554Z,99742.14
2023-04-05T13:57:31.582Z,99736.58
2023-04-05T14:01:29.665Z,99741.82
2023-04-05T14:05:27.598Z,99741.17
2023-04-05T14:09:25.576Z,99738.91
2023-04-05T14:13:24.546Z,99741.64
2023-04-05T14:17:23.553Z,99740.13
2023-04-05T14:21:21.496Z,99745.02
2023-04-05T14:25:19.574Z,99740.58
2023-04-05T14:29:17.525Z,99748.84
2023-04-05T14:33:15.489Z,99750.58
2023-04-05T14:37:13.534Z,99751.41
2023-04-05T14:41:12.497Z,99747.88
2023-04-05T14:45:10.652Z,99746.48
2023-04-05T14:49:08.553Z,99745.67
2023-04-05T14:53:08.535Z,99744.88
2023-04-05T14:57:06.483Z,99746.70
2023-04-05T15:01:06.565Z,99747.24
2023-04-05T15:05:07.436Z,99746.20
2023-04-05T15:09:06.517Z,99748.63
2023-04-05T15:13:04.431Z,99746.52
2023-04-05T15:17:02.590Z,99743.59
2023-04-05T15:21:00.423Z,99745.48
2023-04-05T15:24:58.542Z,99748.94
2023-04-05T15:28:56.477Z,99753.85
2023-04-05T15:32:54.533Z,99755.48
2023-04-05T15:36:52.391Z,99761.01
2023-04-05T15:40:50.544Z,99757.20
2023-04-05T15:44:49.376Z,99756.50
2023-04-05T15:48:47.421Z,99751.81
2023-04-05T15:52:45.403Z,99750.27
2023-04-05T15:56:44.467Z,99749.35
2023-04-05T16:00:42.489Z,99751.58
2023-04-05T16:04:40.554Z,99750.80
2023-04-05T16:08:38.443Z,99750.98
2023-04-05T16:12:36.437Z,99750.35
2023-04-05T16:16:41.987Z,99752.07
2023-04-05T16:20:47.382Z,99759.61
2023-04-05T16:24:45.440Z,99759.75
2023-04-05T16:28:43.360Z,99759.97
2023-04-05T16:32:41.376Z,99768.80
2023-04-05T16:36:39.342Z,99764.94
2023-04-05T16:40:37.371Z,99770.08
2023-04-05T16:44:36.337Z,99771.70
2023-04-05T16:48:34.322Z,99768.42
2023-04-05T16:52:32.381Z,99765.47
2023-04-05T16:56:31.730Z,99769.19
2023-04-05T17:00:29.495Z,99771.80
2023-04-05T17:04:27.260Z,99771.45
2023-04-05T17:08:25.284Z,99771.64
2023-04-05T17:12:23.293Z,99775.20
2023-04-05T17:16:21.416Z,99779.42
2023-04-05T17:20:19.207Z,99771.61
2023-04-05T17:24:17.331Z,99778.52
2023-04-05T17:28:15.226Z,99783.69
2023-04-05T17:32:13.309Z,99779.27
2023-04-05T17:36:11.234Z,99780.77
2023-04-05T17:40:09.264Z,99782.43
2023-04-05T17:44:07.262Z,99791.39
2023-04-05T17:48:05.467Z,99792.41
2023-04-05T17:52:03.319Z,99800.56
2023-04-05T17:56:01.199Z,99804.69
2023-04-05T18:00:04.217Z,99803.65
2023-04-05T18:04:02.280Z,99806.93
2023-04-05T18:08:00.224Z,99816.86
2023-04-05T18:11:59.176Z,99817.97
2023-04-05T18:15:57.191Z,99822.13
2023-04-05T18:19:56.209Z,99824.24
2023-04-05T18:23:54.172Z,99822.96
2023-04-05T18:27:53.260Z,99812.05
2023-04-05T18:31:51.258Z,99820.17
2023-04-05T18:35:49.439Z,99818.14
2023-04-05T18:39:48.367Z,99818.55
2023-04-05T18:43:46.183Z,99819.48
2023-04-05T18:47:44.121Z,99816.61
2023-04-05T18:51:42.211Z,99810.79
2023-04-05T18:55:40.174Z,99811.82
2023-04-05T18:59:38.205Z,99812.86
2023-04-05T19:03:36.171Z,99813.06
2023-04-05T19:07:34.325Z,99813.77
2023-04-05T19:11:32.092Z,99809.87
2023-04-05T19:15:31.112Z,99813.44
2023-04-05T19:19:29.182Z,99810.62
2023-04-05T19:23:27.127Z,99816.64
2023-04-05T19:27:26.163Z,99816.48
2023-04-05T19:31:25.111Z,99821.51
2023-04-05T19:35:23.108Z,99811.37
2023-04-05T19:39:22.143Z,99808.93
2023-04-05T19:43:21.039Z,99807.59
2023-04-05T19:47:24.205Z,99808.98
2023-04-05T19:51:26.113Z,99804.67
2023-04-05T19:55:42.066Z,99809.65
2023-04-05T19:59:44.266Z,99808.76
2023-04-05T20:03:50.077Z,99810.68
2023-04-05T20:07:48.031Z,99811.54
2023-04-05T20:11:46.075Z,99805.92
2023-04-05T20:15:50.001Z,99805.20
2023-04-05T20:19:48.013Z,99799.95
2023-04-05T20:23:45.975Z,99796.76
2023-04-05T20:27:44.038Z,99796.29
2023-04-05T20:31:47.053Z,99797.07
2023-04-05T20:35:49.080Z,99794.43
2023-04-05T20:39:47.054Z,99786.61
2023-04-05T20:43:45.117Z,99787.73
2023-04-05T20:47:43.023Z,99788.45
2023-04-05T20:51:42.810Z,99784.59
2023-04-05T20:55:40.986Z,99787.80
2023-04-05T20:59:39.165Z,99776.85
2023-04-05T21:03:37.184Z,99777.60
2023-04-05T21:07:35.026Z,99773.84
2023-04-05T21:11:33.104Z,99773.22
2023-04-05T21:15:31.045Z,99769.30
2023-04-05T21:19:28.923Z,99769.08
2023-04-05T21:23:27.078Z,99771.41
2023-04-05T21:27:25.020Z,99763.69
2023-04-05T21:31:22.960Z,99764.91
2023-04-05T21:35:21.117Z,99759.77
2023-04-05T21:39:19.062Z,99758.16
2023-04-05T21:43:16.956Z,99753.48
2023-04-05T21:47:14.923Z,99748.92
2023-04-05T21:51:12.885Z,99741.60
2023-04-05T21:55:10.976Z,99740.35
2023-04-05T21:59:09.098Z,99742.39
2023-04-05T22:03:07.033Z,99745.42
2023-04-05T22:07:04.871Z,99740.98
2023-04-05T22:11:03.022Z,99739.66
2023-04-05T22:15:00.829Z,99741.66
2023-04-05T22:18:58.968Z,99733.88
2023-04-05T22:22:56.954Z,99730.19
2023-04-05T22:26:55.822Z,99720.16
2023-04-05T22:30:53.917Z,99718.91
2023-04-05T22:34:51.877Z,99718.59
2023-04-05T22:38:51.121Z,99717.89
2023-04-05T22:42:49.784Z,99717.08
2023-04-05T22:46:47.936Z,99715.50
2023-04-05T22:50:45.848Z,99716.50
2023-04-05T22:54:43.758Z,99715.05
2023-04-05T22:58:41.835Z,99713.89
2023-04-05T23:02:39.826Z,99709.50
2023-04-05T23:06:37.768Z,99707.48
2023-04-05T23:10:35.846Z,99710.52
2023-04-05T23:14:33.827Z,99705.17
2023-04-05T23:18:31.807Z,99698.40
2023-04-05T23:22:29.800Z,99697.34
2023-04-05T23:26:28.787Z,99690.99
2023-04-05T23:30:26.721Z,99697.06
2023-04-05T23:34:24.699Z,99689.89
2023-04-05T23:38:24.771Z,99688.95
2023-04-05T23:42:22.707Z,99681.92
2023-04-05T23:46:20.786Z,99676.98
2023-04-05T23:50:18.686Z,99672.55
2023-04-05T23:54:16.756Z,99671.57
2023-04-05T23:58:14.765Z,99667.19
